Friday, October 24, 2014
18:54 UTC
  |  Log In   |  Register Free
Airport Search:

Okmulgee Regional Airport
(KOKM)

Okmulgee Regional Airport Diagram
No Airport Diagram Available

FAA data valid effective September 18, 2014 - November 13, 2014 (unless otherwise noted).

 
 
 
 
 
 
 
 
 
 
 
 
 
 

Current Aviation Weather for Okmulgee Regional Airport (KOKM)

The most recent METAR observation for KOKM was updated at: 1814
METAR Summary (Translated METAR)
KOKM
241755Z AUTO 18009KT 10SM CLR 24/15 A3010 RMK AO2 T02390154 10239 20126
KF10
081459Z 31001KT 16/16 RMK PK WND 29004KT PCPN 1/3/6/12/24H 0.00 0.01 0.02 0.02 0.04
(16 nm SW from KOKM)
KRVS
241753Z 20011KT 10SM CLR 24/14 A3009 RMK AO2 SLP194 T02390144 10239 20139 58014
(22.4 nm NW from KOKM)
TAF Summary (Translated TAF)
KRVS
(22.4 nm NW from KOKM)
241720Z 2418/2518 19008KT P6SM BKN250 FM250000 00000KT P6SM SCT250 FM251500 19005KT P6SM SKC
  Airport Weather Conditions for KOKM

 Current Weather at OKM
75° F
Fair
South winds at 10.4 mph
OKM NOAA Radar

Pressure: 30.10 in
Humidity: 59%
Wind: South at 10.4 MPH (9 KT)
Dew Point: 59.7°F
Visibility: 10.00 mi


Airport Weather Forecast for KOKM

Translated METAR and TAF for KOKM
Translated METAR for KOKM (1849 UTC 24 October 2014)
found at http://aviationweather.gov/adds/metars/
 
METAR text: KOKM 241835Z AUTO 18009KT 10SM CLR 25/16 A3007 RMK AO2 T02450156
Conditions at: KOKM (OKMULGEE , OK, US) observed 1835 UTC 24 October 2014
Temperature: 24.5°C (76°F)
Dewpoint: 15.6°C (60°F) [RH = 58%]
Pressure (altimeter): 30.07 inches Hg (1018.4 mb)
Winds: from the S (180 degrees) at 10 MPH (9 knots; 4.7 m/s)
Visibility: 10 or more miles (16+ km)
Ceiling: at least 12,000 feet AGL
Clouds: sky clear below 12,000 feet AGL
Weather: automated observation with no human augmentation;
there may or may not be significant weather present at this time
Translated TAF for KOKM

There is no translated TAF available for this airport

Find All Airport Services Find A Hotel Find A Rental Car Find A Golf Course Find A Restaurant $100 Hamburger



FBO's on the Field
FBO Company Facility Photos Services Transportation Aviation Fuel Prices: Prices include tax
Catering Weather Repair Courtesy Rental Type 100LL JetA JetA+ MOGAS 8087
 
Okmulgee Regional Airport

This FBO has not yet been rated
FS: Phillips 66
Last Updated: Oct-20
Login to update fuel prices
SS:
Contact Okmulgee Regional AirportMore FBO Information
 
Add another FBO Facility Photos Catering Weather Repair Courtesy Rental Type 100LL JetA JetA+ MOGAS 8087
Services Transportation Aviation Fuel Prices: Prices include tax


model-print
model-print
model-print
model-print